sensor_id;sensor_type;location;lat;lon;timestamp;P1;durP1;ratioP1;P2;durP2;ratioP2
37483;SDS011;23337;52.212;9.926;2023-02-13T00:02:23;12.33;;;9.83;;
37483;SDS011;23337;52.212;9.926;2023-02-13T00:04:49;13.07;;;10.33;;
37483;SDS011;23337;52.212;9.926;2023-02-13T00:07:15;13.27;;;10.10;;
37483;SDS011;23337;52.212;9.926;2023-02-13T00:09:41;12.03;;;9.90;;
37483;SDS011;23337;52.212;9.926;2023-02-13T00:12:07;12.60;;;10.17;;
37483;SDS011;23337;52.212;9.926;2023-02-13T00:14:34;10.77;;;9.43;;
37483;SDS011;23337;52.212;9.926;2023-02-13T00:17:00;10.73;;;9.63;;
37483;SDS011;23337;52.212;9.926;2023-02-13T00:19:26;10.37;;;9.03;;
37483;SDS011;23337;52.212;9.926;2023-02-13T00:21:52;10.43;;;8.70;;
37483;SDS011;23337;52.212;9.926;2023-02-13T00:24:18;12.47;;;10.20;;
37483;SDS011;23337;52.212;9.926;2023-02-13T00:26:44;12.27;;;9.20;;
37483;SDS011;23337;52.212;9.926;2023-02-13T00:29:10;12.30;;;9.57;;
37483;SDS011;23337;52.212;9.926;2023-02-13T00:31:36;12.83;;;10.00;;
37483;SDS011;23337;52.212;9.926;2023-02-13T00:34:02;13.80;;;10.13;;
37483;SDS011;23337;52.212;9.926;2023-02-13T00:36:28;12.13;;;9.90;;
37483;SDS011;23337;52.212;9.926;2023-02-13T00:38:54;12.23;;;9.80;;
37483;SDS011;23337;52.212;9.926;2023-02-13T00:41:21;9.80;;;8.77;;
37483;SDS011;23337;52.212;9.926;2023-02-13T00:43:49;10.93;;;8.30;;
37483;SDS011;23337;52.212;9.926;2023-02-13T00:46:15;12.70;;;9.37;;
37483;SDS011;23337;52.212;9.926;2023-02-13T00:48:42;11.17;;;9.10;;
37483;SDS011;23337;52.212;9.926;2023-02-13T00:51:08;12.40;;;9.47;;
37483;SDS011;23337;52.212;9.926;2023-02-13T00:53:35;11.00;;;8.37;;
37483;SDS011;23337;52.212;9.926;2023-02-13T00:56:01;10.33;;;8.43;;
37483;SDS011;23337;52.212;9.926;2023-02-13T00:58:27;11.77;;;9.73;;
37483;SDS011;23337;52.212;9.926;2023-02-13T01:00:53;9.60;;;8.20;;
37483;SDS011;23337;52.212;9.926;2023-02-13T01:03:20;12.63;;;8.40;;
37483;SDS011;23337;52.212;9.926;2023-02-13T01:05:46;10.37;;;8.90;;
37483;SDS011;23337;52.212;9.926;2023-02-13T01:08:13;9.37;;;7.50;;
37483;SDS011;23337;52.212;9.926;2023-02-13T01:10:40;9.57;;;8.43;;
37483;SDS011;23337;52.212;9.926;2023-02-13T01:13:06;10.87;;;9.00;;
37483;SDS011;23337;52.212;9.926;2023-02-13T01:15:33;10.40;;;8.60;;
37483;SDS011;23337;52.212;9.926;2023-02-13T01:17:59;10.30;;;8.23;;
37483;SDS011;23337;52.212;9.926;2023-02-13T01:20:25;11.77;;;8.90;;
37483;SDS011;23337;52.212;9.926;2023-02-13T01:22:52;10.90;;;8.80;;
37483;SDS011;23337;52.212;9.926;2023-02-13T01:25:18;11.60;;;9.53;;
37483;SDS011;23337;52.212;9.926;2023-02-13T01:27:44;12.30;;;9.13;;
37483;SDS011;23337;52.212;9.926;2023-02-13T01:30:10;12.83;;;9.67;;
37483;SDS011;23337;52.212;9.926;2023-02-13T01:32:41;11.53;;;9.47;;
37483;SDS011;23337;52.212;9.926;2023-02-13T01:35:08;11.70;;;9.20;;
37483;SDS011;23337;52.212;9.926;2023-02-13T01:37:34;11.47;;;9.07;;
37483;SDS011;23337;52.212;9.926;2023-02-13T01:40:00;12.20;;;8.93;;
37483;SDS011;23337;52.212;9.926;2023-02-13T01:45:01;12.30;;;10.13;;
37483;SDS011;23337;52.212;9.926;2023-02-13T01:47:32;11.47;;;9.93;;
37483;SDS011;23337;52.212;9.926;2023-02-13T01:50:08;11.73;;;9.73;;
37483;SDS011;23337;52.212;9.926;2023-02-13T01:52:34;11.10;;;8.90;;
37483;SDS011;23337;52.212;9.926;2023-02-13T01:55:03;10.63;;;8.03;;
37483;SDS011;23337;52.212;9.926;2023-02-13T01:57:29;11.23;;;9.13;;
37483;SDS011;23337;52.212;9.926;2023-02-13T02:00:07;9.83;;;8.20;;
37483;SDS011;23337;52.212;9.926;2023-02-13T02:02:35;11.40;;;8.57;;
37483;SDS011;23337;52.212;9.926;2023-02-13T02:05:02;10.07;;;8.77;;
37483;SDS011;23337;52.212;9.926;2023-02-13T02:07:28;10.67;;;8.87;;
37483;SDS011;23337;52.212;9.926;2023-02-13T02:09:57;11.33;;;8.97;;
37483;SDS011;23337;52.212;9.926;2023-02-13T02:14:51;11.43;;;8.30;;
37483;SDS011;23337;52.212;9.926;2023-02-13T02:17:17;11.27;;;9.03;;
37483;SDS011;23337;52.212;9.926;2023-02-13T02:19:46;11.10;;;8.60;;
37483;SDS011;23337;52.212;9.926;2023-02-13T02:28:01;8.63;;;7.60;;
37483;SDS011;23337;52.212;9.926;2023-02-13T02:35:31;9.33;;;7.33;;
37483;SDS011;23337;52.212;9.926;2023-02-13T02:41:04;9.70;;;7.87;;
37483;SDS011;23337;52.212;9.926;2023-02-13T02:48:43;9.60;;;8.27;;
37483;SDS011;23337;52.212;9.926;2023-02-13T02:51:39;8.80;;;7.73;;
37483;SDS011;23337;52.212;9.926;2023-02-13T02:54:22;10.07;;;7.40;;
37483;SDS011;23337;52.212;9.926;2023-02-13T02:57:29;10.03;;;8.27;;
37483;SDS011;23337;52.212;9.926;2023-02-13T03:00:14;8.87;;;7.23;;
37483;SDS011;23337;52.212;9.926;2023-02-13T03:02:59;9.30;;;7.37;;
37483;SDS011;23337;52.212;9.926;2023-02-13T03:05:44;11.13;;;7.97;;
37483;SDS011;23337;52.212;9.926;2023-02-13T03:08:30;10.70;;;8.43;;
37483;SDS011;23337;52.212;9.926;2023-02-13T03:11:31;10.10;;;7.93;;
37483;SDS011;23337;52.212;9.926;2023-02-13T03:14:18;11.43;;;8.37;;
37483;SDS011;23337;52.212;9.926;2023-02-13T03:16:44;11.00;;;8.03;;
37483;SDS011;23337;52.212;9.926;2023-02-13T03:19:32;10.97;;;8.17;;
37483;SDS011;23337;52.212;9.926;2023-02-13T03:22:24;10.77;;;7.90;;
37483;SDS011;23337;52.212;9.926;2023-02-13T03:24:59;11.37;;;8.53;;
37483;SDS011;23337;52.212;9.926;2023-02-13T03:27:43;9.33;;;7.70;;
37483;SDS011;23337;52.212;9.926;2023-02-13T03:38:16;10.33;;;7.80;;
37483;SDS011;23337;52.212;9.926;2023-02-13T03:40:48;8.93;;;7.87;;
37483;SDS011;23337;52.212;9.926;2023-02-13T03:46:12;12.60;;;8.97;;
37483;SDS011;23337;52.212;9.926;2023-02-13T03:48:39;10.63;;;7.70;;
37483;SDS011;23337;52.212;9.926;2023-02-13T03:53:59;12.10;;;8.03;;
37483;SDS011;23337;52.212;9.926;2023-02-13T03:56:25;11.60;;;8.17;;
37483;SDS011;23337;52.212;9.926;2023-02-13T03:59:21;11.63;;;8.40;;
37483;SDS011;23337;52.212;9.926;2023-02-13T04:01:49;11.03;;;8.27;;
37483;SDS011;23337;52.212;9.926;2023-02-13T04:06:49;10.50;;;8.07;;
37483;SDS011;23337;52.212;9.926;2023-02-13T04:09:16;9.90;;;7.90;;
37483;SDS011;23337;52.212;9.926;2023-02-13T04:14:19;10.83;;;7.33;;
37483;SDS011;23337;52.212;9.926;2023-02-13T04:16:47;9.40;;;6.27;;
37483;SDS011;23337;52.212;9.926;2023-02-13T04:19:14;9.60;;;5.90;;
37483;SDS011;23337;52.212;9.926;2023-02-13T04:21:40;7.67;;;5.30;;
37483;SDS011;23337;52.212;9.926;2023-02-13T04:24:06;9.20;;;5.80;;
37483;SDS011;23337;52.212;9.926;2023-02-13T04:26:36;9.50;;;6.53;;
37483;SDS011;23337;52.212;9.926;2023-02-13T04:29:03;7.97;;;6.23;;
37483;SDS011;23337;52.212;9.926;2023-02-13T04:31:28;7.53;;;5.83;;
37483;SDS011;23337;52.212;9.926;2023-02-13T04:33:54;9.07;;;6.17;;
37483;SDS011;23337;52.212;9.926;2023-02-13T04:36:20;9.90;;;6.87;;
37483;SDS011;23337;52.212;9.926;2023-02-13T04:38:46;12.83;;;5.83;;
37483;SDS011;23337;52.212;9.926;2023-02-13T04:41:12;7.23;;;5.83;;
37483;SDS011;23337;52.212;9.926;2023-02-13T04:43:38;8.43;;;5.77;;
37483;SDS011;23337;52.212;9.926;2023-02-13T04:46:04;9.63;;;6.03;;
37483;SDS011;23337;52.212;9.926;2023-02-13T04:48:30;7.70;;;6.07;;
37483;SDS011;23337;52.212;9.926;2023-02-13T04:50:56;6.80;;;5.30;;
37483;SDS011;23337;52.212;9.926;2023-02-13T04:53:22;6.20;;;3.70;;
37483;SDS011;23337;52.212;9.926;2023-02-13T04:55:48;6.60;;;4.33;;
37483;SDS011;23337;52.212;9.926;2023-02-13T04:58:14;7.03;;;4.73;;
37483;SDS011;23337;52.212;9.926;2023-02-13T05:00:40;5.17;;;3.87;;
37483;SDS011;23337;52.212;9.926;2023-02-13T05:03:06;6.30;;;4.43;;
37483;SDS011;23337;52.212;9.926;2023-02-13T05:05:33;5.27;;;3.77;;
37483;SDS011;23337;52.212;9.926;2023-02-13T05:07:59;4.77;;;3.73;;
37483;SDS011;23337;52.212;9.926;2023-02-13T05:10:26;5.73;;;4.37;;
37483;SDS011;23337;52.212;9.926;2023-02-13T05:12:52;6.00;;;3.70;;
37483;SDS011;23337;52.212;9.926;2023-02-13T05:15:18;5.20;;;3.50;;
37483;SDS011;23337;52.212;9.926;2023-02-13T05:17:44;5.17;;;3.47;;
37483;SDS011;23337;52.212;9.926;2023-02-13T05:20:10;7.57;;;3.87;;
37483;SDS011;23337;52.212;9.926;2023-02-13T05:22:37;5.50;;;3.47;;
37483;SDS011;23337;52.212;9.926;2023-02-13T05:25:26;5.00;;;4.50;;
37483;SDS011;23337;52.212;9.926;2023-02-13T05:27:52;3.80;;;3.00;;
37483;SDS011;23337;52.212;9.926;2023-02-13T05:30:18;6.07;;;3.63;;
37483;SDS011;23337;52.212;9.926;2023-02-13T05:32:44;5.13;;;3.03;;
37483;SDS011;23337;52.212;9.926;2023-02-13T05:35:10;4.50;;;2.90;;
37483;SDS011;23337;52.212;9.926;2023-02-13T05:37:36;3.97;;;2.83;;
37483;SDS011;23337;52.212;9.926;2023-02-13T05:40:02;3.87;;;2.77;;
37483;SDS011;23337;52.212;9.926;2023-02-13T05:42:28;4.27;;;2.80;;
37483;SDS011;23337;52.212;9.926;2023-02-13T05:44:54;3.63;;;2.60;;
37483;SDS011;23337;52.212;9.926;2023-02-13T05:47:20;3.83;;;2.70;;
37483;SDS011;23337;52.212;9.926;2023-02-13T05:49:46;3.43;;;2.47;;
37483;SDS011;23337;52.212;9.926;2023-02-13T05:52:12;3.33;;;2.23;;
37483;SDS011;23337;52.212;9.926;2023-02-13T05:54:38;5.13;;;2.20;;
37483;SDS011;23337;52.212;9.926;2023-02-13T05:57:04;5.60;;;3.13;;
37483;SDS011;23337;52.212;9.926;2023-02-13T05:59:30;3.40;;;1.83;;
37483;SDS011;23337;52.212;9.926;2023-02-13T06:01:56;3.23;;;2.63;;
37483;SDS011;23337;52.212;9.926;2023-02-13T06:04:21;2.63;;;1.83;;
37483;SDS011;23337;52.212;9.926;2023-02-13T06:06:47;4.73;;;2.60;;
37483;SDS011;23337;52.212;9.926;2023-02-13T06:09:13;2.63;;;2.07;;
37483;SDS011;23337;52.212;9.926;2023-02-13T06:11:39;2.87;;;1.83;;
37483;SDS011;23337;52.212;9.926;2023-02-13T06:14:05;3.80;;;2.07;;
37483;SDS011;23337;52.212;9.926;2023-02-13T06:16:31;2.63;;;2.03;;
37483;SDS011;23337;52.212;9.926;2023-02-13T06:18:58;2.17;;;1.40;;
37483;SDS011;23337;52.212;9.926;2023-02-13T06:21:24;1.70;;;1.20;;
37483;SDS011;23337;52.212;9.926;2023-02-13T06:23:50;1.93;;;1.33;;
37483;SDS011;23337;52.212;9.926;2023-02-13T06:26:16;2.07;;;1.00;;
37483;SDS011;23337;52.212;9.926;2023-02-13T06:28:42;1.60;;;1.20;;
37483;SDS011;23337;52.212;9.926;2023-02-13T06:31:08;2.20;;;0.90;;
37483;SDS011;23337;52.212;9.926;2023-02-13T06:33:34;1.33;;;1.00;;
37483;SDS011;23337;52.212;9.926;2023-02-13T06:36:00;2.77;;;1.00;;
37483;SDS011;23337;52.212;9.926;2023-02-13T06:38:26;1.67;;;0.87;;
37483;SDS011;23337;52.212;9.926;2023-02-13T06:40:52;2.03;;;0.80;;
37483;SDS011;23337;52.212;9.926;2023-02-13T06:43:23;1.73;;;0.93;;
37483;SDS011;23337;52.212;9.926;2023-02-13T06:45:49;1.17;;;0.80;;
37483;SDS011;23337;52.212;9.926;2023-02-13T06:48:17;1.20;;;1.00;;
37483;SDS011;23337;52.212;9.926;2023-02-13T06:50:43;1.33;;;1.20;;
37483;SDS011;23337;52.212;9.926;2023-02-13T06:53:09;2.57;;;1.20;;
37483;SDS011;23337;52.212;9.926;2023-02-13T06:55:35;1.40;;;1.00;;
37483;SDS011;23337;52.212;9.926;2023-02-13T06:58:03;1.80;;;0.90;;
37483;SDS011;23337;52.212;9.926;2023-02-13T07:00:29;1.43;;;1.30;;
37483;SDS011;23337;52.212;9.926;2023-02-13T07:02:59;1.97;;;1.10;;
37483;SDS011;23337;52.212;9.926;2023-02-13T07:05:25;1.40;;;1.00;;
37483;SDS011;23337;52.212;9.926;2023-02-13T07:07:51;1.27;;;0.90;;
37483;SDS011;23337;52.212;9.926;2023-02-13T07:10:17;1.53;;;1.03;;
37483;SDS011;23337;52.212;9.926;2023-02-13T07:12:43;1.97;;;1.30;;
37483;SDS011;23337;52.212;9.926;2023-02-13T07:15:09;2.30;;;1.20;;
37483;SDS011;23337;52.212;9.926;2023-02-13T07:17:35;2.63;;;1.50;;
37483;SDS011;23337;52.212;9.926;2023-02-13T07:20:02;2.90;;;1.50;;
37483;SDS011;23337;52.212;9.926;2023-02-13T07:22:29;1.53;;;1.23;;
37483;SDS011;23337;52.212;9.926;2023-02-13T07:24:55;4.50;;;2.27;;
37483;SDS011;23337;52.212;9.926;2023-02-13T07:27:22;2.00;;;1.57;;
37483;SDS011;23337;52.212;9.926;2023-02-13T07:29:48;2.40;;;1.70;;
37483;SDS011;23337;52.212;9.926;2023-02-13T07:32:14;3.33;;;2.03;;
37483;SDS011;23337;52.212;9.926;2023-02-13T07:34:40;3.10;;;2.10;;
37483;SDS011;23337;52.212;9.926;2023-02-13T07:37:06;3.43;;;1.77;;
37483;SDS011;23337;52.212;9.926;2023-02-13T07:39:32;4.13;;;2.03;;
37483;SDS011;23337;52.212;9.926;2023-02-13T07:41:58;3.97;;;1.90;;
37483;SDS011;23337;52.212;9.926;2023-02-13T07:44:24;2.97;;;2.67;;
37483;SDS011;23337;52.212;9.926;2023-02-13T07:46:50;3.97;;;2.63;;
37483;SDS011;23337;52.212;9.926;2023-02-13T07:49:16;3.63;;;2.50;;
37483;SDS011;23337;52.212;9.926;2023-02-13T07:51:42;3.60;;;3.10;;
37483;SDS011;23337;52.212;9.926;2023-02-13T07:54:08;4.43;;;3.00;;
37483;SDS011;23337;52.212;9.926;2023-02-13T07:56:34;4.83;;;3.27;;
37483;SDS011;23337;52.212;9.926;2023-02-13T07:59:00;4.37;;;2.80;;
37483;SDS011;23337;52.212;9.926;2023-02-13T08:01:26;7.03;;;3.53;;
37483;SDS011;23337;52.212;9.926;2023-02-13T08:03:52;6.00;;;3.70;;
37483;SDS011;23337;52.212;9.926;2023-02-13T08:06:18;4.63;;;2.90;;
37483;SDS011;23337;52.212;9.926;2023-02-13T08:08:44;6.03;;;3.27;;
37483;SDS011;23337;52.212;9.926;2023-02-13T08:11:24;4.80;;;3.97;;
37483;SDS011;23337;52.212;9.926;2023-02-13T08:14:11;6.07;;;3.77;;
37483;SDS011;23337;52.212;9.926;2023-02-13T08:16:37;6.63;;;3.83;;
37483;SDS011;23337;52.212;9.926;2023-02-13T08:19:03;4.90;;;3.30;;
37483;SDS011;23337;52.212;9.926;2023-02-13T08:21:29;5.00;;;3.87;;
37483;SDS011;23337;52.212;9.926;2023-02-13T08:23:55;5.20;;;3.90;;
37483;SDS011;23337;52.212;9.926;2023-02-13T08:26:21;7.00;;;4.60;;
37483;SDS011;23337;52.212;9.926;2023-02-13T08:28:47;5.90;;;4.53;;
37483;SDS011;23337;52.212;9.926;2023-02-13T08:31:13;5.93;;;4.37;;
37483;SDS011;23337;52.212;9.926;2023-02-13T08:33:39;6.53;;;4.43;;
37483;SDS011;23337;52.212;9.926;2023-02-13T08:36:05;9.30;;;4.67;;
37483;SDS011;23337;52.212;9.926;2023-02-13T08:38:31;6.57;;;5.10;;
37483;SDS011;23337;52.212;9.926;2023-02-13T08:40:57;5.67;;;4.23;;
37483;SDS011;23337;52.212;9.926;2023-02-13T08:43:23;4.50;;;3.87;;
37483;SDS011;23337;52.212;9.926;2023-02-13T08:45:49;5.23;;;4.00;;
37483;SDS011;23337;52.212;9.926;2023-02-13T08:48:15;4.93;;;3.93;;
37483;SDS011;23337;52.212;9.926;2023-02-13T08:50:41;5.20;;;4.20;;
37483;SDS011;23337;52.212;9.926;2023-02-13T08:53:07;5.30;;;4.40;;
37483;SDS011;23337;52.212;9.926;2023-02-13T08:55:33;5.17;;;4.27;;
37483;SDS011;23337;52.212;9.926;2023-02-13T08:58:02;5.13;;;4.00;;
37483;SDS011;23337;52.212;9.926;2023-02-13T09:00:29;6.03;;;4.30;;
37483;SDS011;23337;52.212;9.926;2023-02-13T09:02:58;5.43;;;4.40;;
37483;SDS011;23337;52.212;9.926;2023-02-13T09:05:25;4.53;;;3.90;;
37483;SDS011;23337;52.212;9.926;2023-02-13T09:07:50;4.47;;;3.50;;
37483;SDS011;23337;52.212;9.926;2023-02-13T09:10:16;5.47;;;4.00;;
37483;SDS011;23337;52.212;9.926;2023-02-13T09:12:42;6.13;;;4.30;;
37483;SDS011;23337;52.212;9.926;2023-02-13T09:15:08;7.40;;;4.50;;
37483;SDS011;23337;52.212;9.926;2023-02-13T09:17:35;4.90;;;4.37;;
37483;SDS011;23337;52.212;9.926;2023-02-13T09:20:01;4.07;;;3.67;;
37483;SDS011;23337;52.212;9.926;2023-02-13T09:22:27;5.60;;;4.00;;
37483;SDS011;23337;52.212;9.926;2023-02-13T09:24:53;5.37;;;3.77;;
37483;SDS011;23337;52.212;9.926;2023-02-13T09:27:19;5.97;;;4.60;;
37483;SDS011;23337;52.212;9.926;2023-02-13T09:29:45;5.73;;;4.13;;
37483;SDS011;23337;52.212;9.926;2023-02-13T09:32:11;3.93;;;3.37;;
37483;SDS011;23337;52.212;9.926;2023-02-13T09:34:37;3.97;;;3.37;;
37483;SDS011;23337;52.212;9.926;2023-02-13T09:37:03;4.33;;;3.60;;
37483;SDS011;23337;52.212;9.926;2023-02-13T09:39:29;3.83;;;3.40;;
37483;SDS011;23337;52.212;9.926;2023-02-13T09:41:55;3.17;;;2.87;;
37483;SDS011;23337;52.212;9.926;2023-02-13T09:44:29;4.20;;;3.30;;
37483;SDS011;23337;52.212;9.926;2023-02-13T09:47:06;4.13;;;3.73;;
37483;SDS011;23337;52.212;9.926;2023-02-13T09:49:34;3.47;;;3.13;;
37483;SDS011;23337;52.212;9.926;2023-02-13T09:52:02;3.80;;;2.90;;
37483;SDS011;23337;52.212;9.926;2023-02-13T09:54:28;3.33;;;2.87;;
37483;SDS011;23337;52.212;9.926;2023-02-13T10:01:57;2.67;;;2.23;;
37483;SDS011;23337;52.212;9.926;2023-02-13T10:07:05;3.23;;;2.63;;
37483;SDS011;23337;52.212;9.926;2023-02-13T10:09:50;3.00;;;2.50;;
37483;SDS011;23337;52.212;9.926;2023-02-13T10:14:58;3.10;;;1.93;;
37483;SDS011;23337;52.212;9.926;2023-02-13T10:17:32;2.53;;;1.73;;
37483;SDS011;23337;52.212;9.926;2023-02-13T10:20:00;2.17;;;1.83;;
37483;SDS011;23337;52.212;9.926;2023-02-13T10:25:24;3.20;;;2.07;;
37483;SDS011;23337;52.212;9.926;2023-02-13T10:27:53;2.50;;;1.73;;
37483;SDS011;23337;52.212;9.926;2023-02-13T10:30:24;2.97;;;2.03;;
37483;SDS011;23337;52.212;9.926;2023-02-13T10:32:57;4.53;;;1.67;;
37483;SDS011;23337;52.212;9.926;2023-02-13T10:35:42;2.27;;;1.80;;
37483;SDS011;23337;52.212;9.926;2023-02-13T10:38:11;2.20;;;1.70;;
37483;SDS011;23337;52.212;9.926;2023-02-13T10:40:39;1.43;;;1.30;;
37483;SDS011;23337;52.212;9.926;2023-02-13T10:43:10;1.50;;;1.40;;
37483;SDS011;23337;52.212;9.926;2023-02-13T10:45:56;2.47;;;1.50;;
37483;SDS011;23337;52.212;9.926;2023-02-13T10:48:40;2.53;;;1.80;;
37483;SDS011;23337;52.212;9.926;2023-02-13T10:56:25;1.80;;;1.60;;
37483;SDS011;23337;52.212;9.926;2023-02-13T11:04:11;2.47;;;2.23;;
37483;SDS011;23337;52.212;9.926;2023-02-13T11:06:40;2.87;;;2.40;;
37483;SDS011;23337;52.212;9.926;2023-02-13T11:09:07;2.53;;;2.30;;
37483;SDS011;23337;52.212;9.926;2023-02-13T11:11:36;3.90;;;2.10;;
37483;SDS011;23337;52.212;9.926;2023-02-13T11:14:07;2.78;;;2.30;;
37483;SDS011;23337;52.212;9.926;2023-02-13T11:19:05;2.80;;;2.13;;
37483;SDS011;23337;52.212;9.926;2023-02-13T11:21:41;2.50;;;2.30;;
37483;SDS011;23337;52.212;9.926;2023-02-13T11:24:14;1.90;;;1.53;;
37483;SDS011;23337;52.212;9.926;2023-02-13T11:26:41;1.53;;;1.43;;
37483;SDS011;23337;52.212;9.926;2023-02-13T11:29:18;1.70;;;1.53;;
37483;SDS011;23337;52.212;9.926;2023-02-13T11:31:45;3.67;;;3.13;;
37483;SDS011;23337;52.212;9.926;2023-02-13T11:36:50;1.70;;;1.53;;
37483;SDS011;23337;52.212;9.926;2023-02-13T11:39:17;3.43;;;1.67;;
37483;SDS011;23337;52.212;9.926;2023-02-13T11:41:44;1.57;;;1.10;;
37483;SDS011;23337;52.212;9.926;2023-02-13T11:44:24;2.10;;;1.73;;
37483;SDS011;23337;52.212;9.926;2023-02-13T11:46:51;1.40;;;1.20;;
37483;SDS011;23337;52.212;9.926;2023-02-13T11:51:44;1.60;;;1.47;;
37483;SDS011;23337;52.212;9.926;2023-02-13T11:54:24;1.80;;;1.37;;
37483;SDS011;23337;52.212;9.926;2023-02-13T11:56:55;1.53;;;1.20;;
37483;SDS011;23337;52.212;9.926;2023-02-13T11:59:23;2.07;;;1.20;;
37483;SDS011;23337;52.212;9.926;2023-02-13T12:02:02;2.13;;;1.07;;
37483;SDS011;23337;52.212;9.926;2023-02-13T12:04:29;1.50;;;1.00;;
37483;SDS011;23337;52.212;9.926;2023-02-13T12:09:39;2.40;;;1.40;;
37483;SDS011;23337;52.212;9.926;2023-02-13T12:12:05;2.40;;;1.20;;
37483;SDS011;23337;52.212;9.926;2023-02-13T12:14:33;1.90;;;1.30;;
37483;SDS011;23337;52.212;9.926;2023-02-13T12:17:03;1.47;;;1.27;;
37483;SDS011;23337;52.212;9.926;2023-02-13T12:19:43;1.80;;;1.27;;
37483;SDS011;23337;52.212;9.926;2023-02-13T12:28:02;3.37;;;1.30;;
37483;SDS011;23337;52.212;9.926;2023-02-13T12:33:23;1.70;;;1.23;;
37483;SDS011;23337;52.212;9.926;2023-02-13T12:35:56;2.50;;;1.80;;
37483;SDS011;23337;52.212;9.926;2023-02-13T12:38:30;1.67;;;1.23;;
37483;SDS011;23337;52.212;9.926;2023-02-13T12:41:18;1.50;;;1.00;;
37483;SDS011;23337;52.212;9.926;2023-02-13T12:43:51;1.67;;;1.27;;
37483;SDS011;23337;52.212;9.926;2023-02-13T12:49:13;1.17;;;1.07;;
37483;SDS011;23337;52.212;9.926;2023-02-13T12:51:55;1.80;;;1.47;;
37483;SDS011;23337;52.212;9.926;2023-02-13T12:54:47;1.77;;;1.30;;
37483;SDS011;23337;52.212;9.926;2023-02-13T13:00:04;2.43;;;1.30;;
37483;SDS011;23337;52.212;9.926;2023-02-13T13:13:30;1.93;;;1.23;;
37483;SDS011;23337;52.212;9.926;2023-02-13T13:18:30;0.83;;;0.80;;
37483;SDS011;23337;52.212;9.926;2023-02-13T13:23:36;0.83;;;0.83;;
37483;SDS011;23337;52.212;9.926;2023-02-13T13:26:08;1.07;;;0.90;;
37483;SDS011;23337;52.212;9.926;2023-02-13T13:28:37;1.30;;;0.90;;
37483;SDS011;23337;52.212;9.926;2023-02-13T13:31:04;1.10;;;0.80;;
37483;SDS011;23337;52.212;9.926;2023-02-13T13:33:30;2.00;;;1.47;;
37483;SDS011;23337;52.212;9.926;2023-02-13T13:38:54;1.27;;;0.93;;
37483;SDS011;23337;52.212;9.926;2023-02-13T13:41:22;2.07;;;0.83;;
37483;SDS011;23337;52.212;9.926;2023-02-13T13:46:20;2.07;;;1.03;;
37483;SDS011;23337;52.212;9.926;2023-02-13T13:51:23;1.30;;;1.20;;
37483;SDS011;23337;52.212;9.926;2023-02-13T13:59:16;1.33;;;1.10;;
37483;SDS011;23337;52.212;9.926;2023-02-13T14:01:42;2.03;;;1.10;;
37483;SDS011;23337;52.212;9.926;2023-02-13T14:11:51;2.50;;;1.47;;
37483;SDS011;23337;52.212;9.926;2023-02-13T14:16:52;1.30;;;1.20;;
37483;SDS011;23337;52.212;9.926;2023-02-13T14:19:23;1.30;;;1.20;;
37483;SDS011;23337;52.212;9.926;2023-02-13T14:21:50;1.47;;;1.37;;
37483;SDS011;23337;52.212;9.926;2023-02-13T14:24:17;1.80;;;1.27;;
37483;SDS011;23337;52.212;9.926;2023-02-13T14:26:48;1.60;;;1.50;;
37483;SDS011;23337;52.212;9.926;2023-02-13T14:31:50;1.70;;;1.60;;
37483;SDS011;23337;52.212;9.926;2023-02-13T14:34:26;1.80;;;1.50;;
37483;SDS011;23337;52.212;9.926;2023-02-13T14:37:14;1.47;;;1.33;;
37483;SDS011;23337;52.212;9.926;2023-02-13T14:40:08;1.70;;;1.50;;
37483;SDS011;23337;52.212;9.926;2023-02-13T14:42:30;87.67;;;6.67;;
37483;SDS011;23337;52.212;9.926;2023-02-13T14:44:58;36.73;;;3.93;;
37483;SDS011;23337;52.212;9.926;2023-02-13T14:47:29;8.63;;;2.17;;
37483;SDS011;23337;52.212;9.926;2023-02-13T14:49:56;2.50;;;1.50;;
37483;SDS011;23337;52.212;9.926;2023-02-13T14:52:24;2.13;;;1.50;;
37483;SDS011;23337;52.212;9.926;2023-02-13T14:54:57;3.23;;;1.83;;
37483;SDS011;23337;52.212;9.926;2023-02-13T14:57:25;2.07;;;1.90;;
37483;SDS011;23337;52.212;9.926;2023-02-13T14:59:54;2.17;;;1.97;;
37483;SDS011;23337;52.212;9.926;2023-02-13T15:02:22;2.20;;;2.00;;
37483;SDS011;23337;52.212;9.926;2023-02-13T15:04:52;2.13;;;1.80;;
37483;SDS011;23337;52.212;9.926;2023-02-13T15:07:20;2.10;;;1.90;;
37483;SDS011;23337;52.212;9.926;2023-02-13T15:09:49;5.70;;;2.60;;
37483;SDS011;23337;52.212;9.926;2023-02-13T15:12:32;4.43;;;2.50;;
37483;SDS011;23337;52.212;9.926;2023-02-13T15:14:58;3.50;;;2.00;;
37483;SDS011;23337;52.212;9.926;2023-02-13T15:17:30;4.00;;;2.20;;
37483;SDS011;23337;52.212;9.926;2023-02-13T15:20:36;2.73;;;2.00;;
37483;SDS011;23337;52.212;9.926;2023-02-13T15:22:54;8.67;;;2.37;;
37483;SDS011;23337;52.212;9.926;2023-02-13T15:27:50;2.77;;;2.50;;
37483;SDS011;23337;52.212;9.926;2023-02-13T15:30:22;3.97;;;2.67;;
37483;SDS011;23337;52.212;9.926;2023-02-13T15:32:58;5.13;;;3.40;;
37483;SDS011;23337;52.212;9.926;2023-02-13T15:35:31;3.10;;;2.50;;
37483;SDS011;23337;52.212;9.926;2023-02-13T15:37:58;2.87;;;2.57;;
37483;SDS011;23337;52.212;9.926;2023-02-13T15:40:25;3.23;;;2.83;;
37483;SDS011;23337;52.212;9.926;2023-02-13T15:42:51;3.33;;;2.70;;
37483;SDS011;23337;52.212;9.926;2023-02-13T15:45:18;4.63;;;2.77;;
37483;SDS011;23337;52.212;9.926;2023-02-13T15:47:45;3.40;;;2.63;;
37483;SDS011;23337;52.212;9.926;2023-02-13T15:50:18;2.60;;;2.20;;
37483;SDS011;23337;52.212;9.926;2023-02-13T15:52:44;2.10;;;2.00;;
37483;SDS011;23337;52.212;9.926;2023-02-13T15:55:25;2.43;;;2.23;;
37483;SDS011;23337;52.212;9.926;2023-02-13T15:57:52;2.00;;;1.80;;
37483;SDS011;23337;52.212;9.926;2023-02-13T16:00:29;2.60;;;1.70;;
37483;SDS011;23337;52.212;9.926;2023-02-13T16:02:56;8.87;;;2.40;;
37483;SDS011;23337;52.212;9.926;2023-02-13T16:05:23;2.27;;;2.07;;
37483;SDS011;23337;52.212;9.926;2023-02-13T16:07:53;1.90;;;1.73;;
37483;SDS011;23337;52.212;9.926;2023-02-13T16:12:51;2.30;;;2.10;;
37483;SDS011;23337;52.212;9.926;2023-02-13T16:15:18;2.13;;;1.80;;
37483;SDS011;23337;52.212;9.926;2023-02-13T16:17:45;2.30;;;2.10;;
37483;SDS011;23337;52.212;9.926;2023-02-13T16:25:15;11.10;;;3.23;;
37483;SDS011;23337;52.212;9.926;2023-02-13T16:27:51;2.23;;;2.07;;
37483;SDS011;23337;52.212;9.926;2023-02-13T16:30:37;2.17;;;1.97;;
37483;SDS011;23337;52.212;9.926;2023-02-13T16:33:07;2.67;;;2.47;;
37483;SDS011;23337;52.212;9.926;2023-02-13T16:35:34;2.50;;;2.30;;
37483;SDS011;23337;52.212;9.926;2023-02-13T16:38:19;2.40;;;2.20;;
37483;SDS011;23337;52.212;9.926;2023-02-13T16:40:48;2.40;;;2.20;;
37483;SDS011;23337;52.212;9.926;2023-02-13T16:48:40;2.57;;;2.37;;
37483;SDS011;23337;52.212;9.926;2023-02-13T16:51:07;2.47;;;2.27;;
37483;SDS011;23337;52.212;9.926;2023-02-13T16:53:33;2.83;;;2.63;;
37483;SDS011;23337;52.212;9.926;2023-02-13T16:56:17;2.77;;;2.30;;
37483;SDS011;23337;52.212;9.926;2023-02-13T16:58:43;2.73;;;2.53;;
37483;SDS011;23337;52.212;9.926;2023-02-13T17:01:12;3.17;;;2.87;;
37483;SDS011;23337;52.212;9.926;2023-02-13T17:03:40;3.20;;;2.90;;
37483;SDS011;23337;52.212;9.926;2023-02-13T17:06:07;3.73;;;3.30;;
37483;SDS011;23337;52.212;9.926;2023-02-13T17:08:34;3.47;;;3.17;;
37483;SDS011;23337;52.212;9.926;2023-02-13T17:11:01;4.23;;;3.77;;
37483;SDS011;23337;52.212;9.926;2023-02-13T17:13:28;3.77;;;3.00;;
37483;SDS011;23337;52.212;9.926;2023-02-13T17:15:54;4.83;;;4.33;;
37483;SDS011;23337;52.212;9.926;2023-02-13T17:18:20;5.43;;;4.93;;
37483;SDS011;23337;52.212;9.926;2023-02-13T17:20:46;4.97;;;4.53;;
37483;SDS011;23337;52.212;9.926;2023-02-13T17:23:14;4.80;;;4.40;;
37483;SDS011;23337;52.212;9.926;2023-02-13T17:25:41;5.80;;;4.87;;
37483;SDS011;23337;52.212;9.926;2023-02-13T17:28:12;4.17;;;3.77;;